sensor_id;sensor_type;location;lat;lon;timestamp;P1;durP1;ratioP1;P2;durP2;ratioP2
25913;SDS011;13718;50.922;5.346;2023-10-09T00:00:11;19.67;;;9.77;;
25913;SDS011;13718;50.922;5.346;2023-10-09T00:03:00;18.98;;;9.27;;
25913;SDS011;13718;50.922;5.346;2023-10-09T00:05:26;19.00;;;9.90;;
25913;SDS011;13718;50.922;5.346;2023-10-09T00:08:14;18.25;;;9.70;;
25913;SDS011;13718;50.922;5.346;2023-10-09T00:10:46;17.13;;;9.02;;
25913;SDS011;13718;50.922;5.346;2023-10-09T00:13:18;20.60;;;10.00;;
25913;SDS011;13718;50.922;5.346;2023-10-09T00:15:53;16.98;;;9.73;;
25913;SDS011;13718;50.922;5.346;2023-10-09T00:18:24;21.50;;;9.57;;
25913;SDS011;13718;50.922;5.346;2023-10-09T00:20:54;16.73;;;9.07;;
25913;SDS011;13718;50.922;5.346;2023-10-09T00:23:36;17.85;;;8.70;;
25913;SDS011;13718;50.922;5.346;2023-10-09T00:26:02;16.85;;;9.10;;
25913;SDS011;13718;50.922;5.346;2023-10-09T00:28:38;18.40;;;9.40;;
25913;SDS011;13718;50.922;5.346;2023-10-09T00:31:09;17.10;;;8.73;;
25913;SDS011;13718;50.922;5.346;2023-10-09T00:33:40;18.50;;;8.70;;
25913;SDS011;13718;50.922;5.346;2023-10-09T00:36:09;19.73;;;9.75;;
25913;SDS011;13718;50.922;5.346;2023-10-09T00:38:37;23.10;;;10.13;;
25913;SDS011;13718;50.922;5.346;2023-10-09T00:41:11;23.80;;;9.77;;
25913;SDS011;13718;50.922;5.346;2023-10-09T00:43:44;16.50;;;9.65;;
25913;SDS011;13718;50.922;5.346;2023-10-09T00:46:10;18.75;;;10.13;;
25913;SDS011;13718;50.922;5.346;2023-10-09T00:48:36;20.52;;;9.90;;
25913;SDS011;13718;50.922;5.346;2023-10-09T00:51:07;21.08;;;9.45;;
25913;SDS011;13718;50.922;5.346;2023-10-09T00:53:44;17.73;;;9.50;;
25913;SDS011;13718;50.922;5.346;2023-10-09T00:56:16;20.85;;;9.85;;
25913;SDS011;13718;50.922;5.346;2023-10-09T00:58:54;18.33;;;8.75;;
25913;SDS011;13718;50.922;5.346;2023-10-09T01:01:26;22.52;;;10.15;;
25913;SDS011;13718;50.922;5.346;2023-10-09T01:04:05;17.58;;;9.57;;
25913;SDS011;13718;50.922;5.346;2023-10-09T01:06:51;16.92;;;8.93;;
25913;SDS011;13718;50.922;5.346;2023-10-09T01:09:41;17.42;;;9.55;;
25913;SDS011;13718;50.922;5.346;2023-10-09T01:12:10;18.25;;;9.10;;
25913;SDS011;13718;50.922;5.346;2023-10-09T01:17:08;21.85;;;9.32;;
25913;SDS011;13718;50.922;5.346;2023-10-09T01:19:34;19.23;;;9.15;;
25913;SDS011;13718;50.922;5.346;2023-10-09T01:22:00;21.13;;;10.02;;
25913;SDS011;13718;50.922;5.346;2023-10-09T01:24:37;21.48;;;9.90;;
25913;SDS011;13718;50.922;5.346;2023-10-09T01:27:04;18.15;;;8.98;;
25913;SDS011;13718;50.922;5.346;2023-10-09T01:29:36;19.65;;;9.70;;
25913;SDS011;13718;50.922;5.346;2023-10-09T01:32:01;19.55;;;9.15;;
25913;SDS011;13718;50.922;5.346;2023-10-09T01:34:28;18.52;;;8.93;;
25913;SDS011;13718;50.922;5.346;2023-10-09T01:37:11;23.30;;;9.25;;
25913;SDS011;13718;50.922;5.346;2023-10-09T01:39:45;21.02;;;10.32;;
25913;SDS011;13718;50.922;5.346;2023-10-09T01:42:13;16.45;;;8.93;;
25913;SDS011;13718;50.922;5.346;2023-10-09T01:44:49;18.83;;;8.93;;
25913;SDS011;13718;50.922;5.346;2023-10-09T01:47:18;20.42;;;9.85;;
25913;SDS011;13718;50.922;5.346;2023-10-09T01:49:46;21.30;;;10.10;;
25913;SDS011;13718;50.922;5.346;2023-10-09T01:52:14;16.23;;;9.05;;
25913;SDS011;13718;50.922;5.346;2023-10-09T01:54:41;18.25;;;9.93;;
25913;SDS011;13718;50.922;5.346;2023-10-09T01:57:17;20.27;;;8.70;;
25913;SDS011;13718;50.922;5.346;2023-10-09T01:59:47;20.35;;;9.27;;
25913;SDS011;13718;50.922;5.346;2023-10-09T02:02:18;19.55;;;8.95;;
25913;SDS011;13718;50.922;5.346;2023-10-09T02:04:54;19.20;;;9.30;;
25913;SDS011;13718;50.922;5.346;2023-10-09T02:07:49;21.35;;;9.85;;
25913;SDS011;13718;50.922;5.346;2023-10-09T02:10:18;17.88;;;8.90;;
25913;SDS011;13718;50.922;5.346;2023-10-09T02:12:53;19.08;;;9.52;;
25913;SDS011;13718;50.922;5.346;2023-10-09T02:15:31;18.33;;;8.85;;
25913;SDS011;13718;50.922;5.346;2023-10-09T02:18:16;18.27;;;9.18;;
25913;SDS011;13718;50.922;5.346;2023-10-09T02:20:47;20.85;;;9.23;;
25913;SDS011;13718;50.922;5.346;2023-10-09T02:23:25;17.95;;;9.50;;
25913;SDS011;13718;50.922;5.346;2023-10-09T02:26:08;18.85;;;10.00;;
25913;SDS011;13718;50.922;5.346;2023-10-09T02:28:42;18.10;;;9.57;;
25913;SDS011;13718;50.922;5.346;2023-10-09T02:31:12;19.50;;;9.93;;
25913;SDS011;13718;50.922;5.346;2023-10-09T02:33:38;18.73;;;9.43;;
25913;SDS011;13718;50.922;5.346;2023-10-09T02:36:04;17.70;;;9.88;;
25913;SDS011;13718;50.922;5.346;2023-10-09T02:38:31;19.48;;;9.57;;
25913;SDS011;13718;50.922;5.346;2023-10-09T02:41:00;20.17;;;9.48;;
25913;SDS011;13718;50.922;5.346;2023-10-09T02:43:29;18.95;;;10.20;;
25913;SDS011;13718;50.922;5.346;2023-10-09T02:46:09;19.48;;;9.93;;
25913;SDS011;13718;50.922;5.346;2023-10-09T02:48:45;20.83;;;10.40;;
25913;SDS011;13718;50.922;5.346;2023-10-09T02:51:21;20.95;;;10.15;;
25913;SDS011;13718;50.922;5.346;2023-10-09T02:53:50;19.27;;;10.38;;
25913;SDS011;13718;50.922;5.346;2023-10-09T02:56:52;18.92;;;10.60;;
25913;SDS011;13718;50.922;5.346;2023-10-09T02:59:30;23.80;;;10.20;;
25913;SDS011;13718;50.922;5.346;2023-10-09T03:01:56;22.30;;;9.63;;
25913;SDS011;13718;50.922;5.346;2023-10-09T03:04:24;19.33;;;10.00;;
25913;SDS011;13718;50.922;5.346;2023-10-09T03:06:56;18.70;;;9.60;;
25913;SDS011;13718;50.922;5.346;2023-10-09T03:09:22;22.00;;;10.77;;
25913;SDS011;13718;50.922;5.346;2023-10-09T03:11:52;26.08;;;10.15;;
25913;SDS011;13718;50.922;5.346;2023-10-09T03:14:31;21.98;;;10.75;;
25913;SDS011;13718;50.922;5.346;2023-10-09T03:17:00;22.15;;;10.00;;
25913;SDS011;13718;50.922;5.346;2023-10-09T03:19:27;21.92;;;10.52;;
25913;SDS011;13718;50.922;5.346;2023-10-09T03:21:53;18.95;;;9.85;;
25913;SDS011;13718;50.922;5.346;2023-10-09T03:24:22;20.88;;;10.07;;
25913;SDS011;13718;50.922;5.346;2023-10-09T03:26:48;19.45;;;10.73;;
25913;SDS011;13718;50.922;5.346;2023-10-09T03:29:14;16.95;;;9.55;;
25913;SDS011;13718;50.922;5.346;2023-10-09T03:31:40;22.33;;;9.88;;
25913;SDS011;13718;50.922;5.346;2023-10-09T03:34:08;20.67;;;9.48;;
25913;SDS011;13718;50.922;5.346;2023-10-09T03:36:35;19.35;;;9.38;;
25913;SDS011;13718;50.922;5.346;2023-10-09T03:39:03;17.15;;;10.02;;
25913;SDS011;13718;50.922;5.346;2023-10-09T03:41:43;21.23;;;10.38;;
25913;SDS011;13718;50.922;5.346;2023-10-09T03:44:11;19.13;;;9.70;;
25913;SDS011;13718;50.922;5.346;2023-10-09T03:46:43;18.57;;;9.57;;
25913;SDS011;13718;50.922;5.346;2023-10-09T03:49:11;21.48;;;9.80;;
25913;SDS011;13718;50.922;5.346;2023-10-09T03:51:41;22.27;;;10.32;;
25913;SDS011;13718;50.922;5.346;2023-10-09T03:54:07;17.70;;;9.68;;
25913;SDS011;13718;50.922;5.346;2023-10-09T03:56:35;18.20;;;9.60;;
25913;SDS011;13718;50.922;5.346;2023-10-09T03:59:01;18.63;;;9.68;;
25913;SDS011;13718;50.922;5.346;2023-10-09T04:01:30;19.67;;;10.43;;
25913;SDS011;13718;50.922;5.346;2023-10-09T04:04:02;20.90;;;10.27;;
25913;SDS011;13718;50.922;5.346;2023-10-09T04:06:31;18.88;;;10.40;;
25913;SDS011;13718;50.922;5.346;2023-10-09T04:09:00;18.92;;;10.25;;
25913;SDS011;13718;50.922;5.346;2023-10-09T04:11:48;19.92;;;9.52;;
25913;SDS011;13718;50.922;5.346;2023-10-09T04:14:35;20.98;;;10.38;;
25913;SDS011;13718;50.922;5.346;2023-10-09T04:17:01;22.20;;;10.75;;
25913;SDS011;13718;50.922;5.346;2023-10-09T04:19:56;21.85;;;10.52;;
25913;SDS011;13718;50.922;5.346;2023-10-09T04:22:59;21.13;;;10.93;;
25913;SDS011;13718;50.922;5.346;2023-10-09T04:25:30;21.75;;;10.75;;
25913;SDS011;13718;50.922;5.346;2023-10-09T04:28:06;24.83;;;11.18;;
25913;SDS011;13718;50.922;5.346;2023-10-09T04:30:47;22.63;;;11.05;;
25913;SDS011;13718;50.922;5.346;2023-10-09T04:33:18;25.05;;;11.52;;
25913;SDS011;13718;50.922;5.346;2023-10-09T04:36:02;21.00;;;11.95;;
25913;SDS011;13718;50.922;5.346;2023-10-09T04:38:44;28.45;;;12.00;;
25913;SDS011;13718;50.922;5.346;2023-10-09T04:41:45;20.13;;;11.25;;
25913;SDS011;13718;50.922;5.346;2023-10-09T04:44:10;21.77;;;11.23;;
25913;SDS011;13718;50.922;5.346;2023-10-09T04:46:48;25.65;;;11.38;;
25913;SDS011;13718;50.922;5.346;2023-10-09T04:49:33;24.27;;;12.02;;
25913;SDS011;13718;50.922;5.346;2023-10-09T04:52:12;20.13;;;10.40;;
25913;SDS011;13718;50.922;5.346;2023-10-09T04:54:50;21.52;;;11.43;;
25913;SDS011;13718;50.922;5.346;2023-10-09T04:57:37;23.92;;;11.90;;
25913;SDS011;13718;50.922;5.346;2023-10-09T05:00:08;23.35;;;11.52;;
25913;SDS011;13718;50.922;5.346;2023-10-09T05:02:52;22.67;;;11.77;;
25913;SDS011;13718;50.922;5.346;2023-10-09T05:05:45;22.38;;;11.85;;
25913;SDS011;13718;50.922;5.346;2023-10-09T05:08:14;24.23;;;11.73;;
25913;SDS011;13718;50.922;5.346;2023-10-09T05:10:53;20.08;;;11.75;;
25913;SDS011;13718;50.922;5.346;2023-10-09T05:13:32;21.10;;;10.65;;
25913;SDS011;13718;50.922;5.346;2023-10-09T05:16:37;22.17;;;11.85;;
25913;SDS011;13718;50.922;5.346;2023-10-09T05:18:58;23.85;;;12.13;;
25913;SDS011;13718;50.922;5.346;2023-10-09T05:21:25;22.48;;;11.57;;
25913;SDS011;13718;50.922;5.346;2023-10-09T05:23:56;21.23;;;11.25;;
25913;SDS011;13718;50.922;5.346;2023-10-09T05:26:37;22.47;;;11.73;;
25913;SDS011;13718;50.922;5.346;2023-10-09T05:29:25;23.90;;;11.52;;
25913;SDS011;13718;50.922;5.346;2023-10-09T05:31:54;28.38;;;12.10;;
25913;SDS011;13718;50.922;5.346;2023-10-09T05:34:30;23.88;;;11.57;;
25913;SDS011;13718;50.922;5.346;2023-10-09T05:37:05;22.50;;;11.20;;
25913;SDS011;13718;50.922;5.346;2023-10-09T05:39:47;27.08;;;12.63;;
25913;SDS011;13718;50.922;5.346;2023-10-09T05:42:25;24.95;;;12.52;;
25913;SDS011;13718;50.922;5.346;2023-10-09T05:45:14;23.40;;;11.75;;
25913;SDS011;13718;50.922;5.346;2023-10-09T05:47:50;19.00;;;9.00;;
25913;SDS011;13718;50.922;5.346;2023-10-09T05:50:22;19.63;;;9.32;;
25913;SDS011;13718;50.922;5.346;2023-10-09T05:52:49;21.42;;;9.80;;
25913;SDS011;13718;50.922;5.346;2023-10-09T05:55:18;20.15;;;9.48;;
25913;SDS011;13718;50.922;5.346;2023-10-09T05:57:53;27.65;;;9.80;;
25913;SDS011;13718;50.922;5.346;2023-10-09T06:00:38;22.58;;;9.50;;
25913;SDS011;13718;50.922;5.346;2023-10-09T06:03:22;20.45;;;9.35;;
25913;SDS011;13718;50.922;5.346;2023-10-09T06:06:13;23.45;;;9.85;;
25913;SDS011;13718;50.922;5.346;2023-10-09T06:09:04;21.92;;;8.73;;
25913;SDS011;13718;50.922;5.346;2023-10-09T06:14:21;22.27;;;7.53;;
25913;SDS011;13718;50.922;5.346;2023-10-09T06:17:10;18.70;;;7.35;;
25913;SDS011;13718;50.922;5.346;2023-10-09T06:19:38;20.23;;;7.18;;
25913;SDS011;13718;50.922;5.346;2023-10-09T06:22:10;25.00;;;11.20;;
25913;SDS011;13718;50.922;5.346;2023-10-09T06:24:55;25.73;;;10.05;;
25913;SDS011;13718;50.922;5.346;2023-10-09T06:27:22;22.92;;;9.85;;
25913;SDS011;13718;50.922;5.346;2023-10-09T06:29:57;24.90;;;10.10;;
25913;SDS011;13718;50.922;5.346;2023-10-09T06:32:42;21.67;;;9.57;;
25913;SDS011;13718;50.922;5.346;2023-10-09T06:35:23;21.48;;;9.90;;
25913;SDS011;13718;50.922;5.346;2023-10-09T06:43:19;19.15;;;7.97;;
25913;SDS011;13718;50.922;5.346;2023-10-09T06:45:51;21.42;;;8.48;;
25913;SDS011;13718;50.922;5.346;2023-10-09T06:48:37;19.50;;;8.38;;
25913;SDS011;13718;50.922;5.346;2023-10-09T06:51:03;20.80;;;8.43;;
25913;SDS011;13718;50.922;5.346;2023-10-09T06:53:38;22.92;;;9.00;;
25913;SDS011;13718;50.922;5.346;2023-10-09T06:56:22;25.52;;;9.18;;
25913;SDS011;13718;50.922;5.346;2023-10-09T06:58:58;22.83;;;9.10;;
25913;SDS011;13718;50.922;5.346;2023-10-09T07:01:29;23.52;;;9.38;;
25913;SDS011;13718;50.922;5.346;2023-10-09T07:04:04;27.20;;;9.10;;
25913;SDS011;13718;50.922;5.346;2023-10-09T07:06:49;21.02;;;8.25;;
25913;SDS011;13718;50.922;5.346;2023-10-09T07:09:16;22.17;;;8.70;;
25913;SDS011;13718;50.922;5.346;2023-10-09T07:14:16;18.52;;;8.32;;
25913;SDS011;13718;50.922;5.346;2023-10-09T07:19:25;20.95;;;7.97;;
25913;SDS011;13718;50.922;5.346;2023-10-09T07:22:20;21.35;;;8.07;;
25913;SDS011;13718;50.922;5.346;2023-10-09T07:24:47;21.15;;;8.80;;
25913;SDS011;13718;50.922;5.346;2023-10-09T07:27:36;16.52;;;7.35;;
25913;SDS011;13718;50.922;5.346;2023-10-09T07:30:14;19.38;;;8.13;;
25913;SDS011;13718;50.922;5.346;2023-10-09T07:35:42;20.38;;;7.28;;
25913;SDS011;13718;50.922;5.346;2023-10-09T07:38:09;22.65;;;8.85;;
25913;SDS011;13718;50.922;5.346;2023-10-09T07:40:44;16.92;;;7.78;;
25913;SDS011;13718;50.922;5.346;2023-10-09T07:43:30;22.65;;;7.80;;
25913;SDS011;13718;50.922;5.346;2023-10-09T07:46:04;19.33;;;7.95;;
25913;SDS011;13718;50.922;5.346;2023-10-09T07:48:30;22.50;;;8.13;;
25913;SDS011;13718;50.922;5.346;2023-10-09T07:51:15;20.92;;;8.05;;
25913;SDS011;13718;50.922;5.346;2023-10-09T07:53:41;19.55;;;7.32;;
25913;SDS011;13718;50.922;5.346;2023-10-09T07:56:10;23.30;;;7.60;;
25913;SDS011;13718;50.922;5.346;2023-10-09T07:58:46;19.05;;;8.23;;
25913;SDS011;13718;50.922;5.346;2023-10-09T08:01:12;18.83;;;8.27;;
25913;SDS011;13718;50.922;5.346;2023-10-09T08:03:47;19.67;;;7.85;;
25913;SDS011;13718;50.922;5.346;2023-10-09T08:06:22;20.80;;;7.30;;
25913;SDS011;13718;50.922;5.346;2023-10-09T08:09:07;24.75;;;8.75;;
25913;SDS011;13718;50.922;5.346;2023-10-09T08:11:42;18.77;;;8.10;;
25913;SDS011;13718;50.922;5.346;2023-10-09T08:14:13;19.65;;;7.93;;
25913;SDS011;13718;50.922;5.346;2023-10-09T08:17:05;26.25;;;8.48;;
25913;SDS011;13718;50.922;5.346;2023-10-09T08:19:51;18.85;;;8.35;;
25913;SDS011;13718;50.922;5.346;2023-10-09T08:22:20;18.30;;;8.05;;
25913;SDS011;13718;50.922;5.346;2023-10-09T08:24:49;19.10;;;7.75;;
25913;SDS011;13718;50.922;5.346;2023-10-09T08:27:25;22.30;;;7.70;;
25913;SDS011;13718;50.922;5.346;2023-10-09T08:30:04;22.20;;;8.18;;
25913;SDS011;13718;50.922;5.346;2023-10-09T08:32:57;19.10;;;7.90;;
25913;SDS011;13718;50.922;5.346;2023-10-09T08:35:30;21.05;;;7.72;;
25913;SDS011;13718;50.922;5.346;2023-10-09T08:38:00;20.48;;;7.70;;
25913;SDS011;13718;50.922;5.346;2023-10-09T08:40:37;22.75;;;7.68;;
25913;SDS011;13718;50.922;5.346;2023-10-09T08:43:19;17.73;;;7.22;;
25913;SDS011;13718;50.922;5.346;2023-10-09T08:45:51;24.25;;;7.72;;
25913;SDS011;13718;50.922;5.346;2023-10-09T08:48:22;18.45;;;7.43;;
25913;SDS011;13718;50.922;5.346;2023-10-09T08:50:48;21.55;;;8.07;;
25913;SDS011;13718;50.922;5.346;2023-10-09T08:53:19;19.65;;;7.75;;
25913;SDS011;13718;50.922;5.346;2023-10-09T08:55:46;27.10;;;8.65;;
25913;SDS011;13718;50.922;5.346;2023-10-09T08:58:13;24.95;;;12.23;;
25913;SDS011;13718;50.922;5.346;2023-10-09T09:00:50;20.05;;;10.50;;
25913;SDS011;13718;50.922;5.346;2023-10-09T09:03:16;19.67;;;9.30;;
25913;SDS011;13718;50.922;5.346;2023-10-09T09:05:47;20.50;;;9.27;;
25913;SDS011;13718;50.922;5.346;2023-10-09T09:08:23;22.30;;;10.85;;
25913;SDS011;13718;50.922;5.346;2023-10-09T09:10:51;18.92;;;7.80;;
25913;SDS011;13718;50.922;5.346;2023-10-09T09:13:42;21.90;;;7.88;;
25913;SDS011;13718;50.922;5.346;2023-10-09T09:16:18;20.40;;;7.90;;
25913;SDS011;13718;50.922;5.346;2023-10-09T09:21:31;17.30;;;7.47;;
25913;SDS011;13718;50.922;5.346;2023-10-09T09:24:07;19.98;;;7.78;;
25913;SDS011;13718;50.922;5.346;2023-10-09T09:29:24;18.45;;;7.18;;
25913;SDS011;13718;50.922;5.346;2023-10-09T09:32:03;20.08;;;7.15;;
25913;SDS011;13718;50.922;5.346;2023-10-09T09:37:26;17.27;;;7.32;;
25913;SDS011;13718;50.922;5.346;2023-10-09T09:39:59;18.73;;;7.30;;
25913;SDS011;13718;50.922;5.346;2023-10-09T09:42:29;18.55;;;7.50;;
25913;SDS011;13718;50.922;5.346;2023-10-09T09:45:00;17.13;;;6.70;;
25913;SDS011;13718;50.922;5.346;2023-10-09T09:47:27;15.05;;;6.57;;
25913;SDS011;13718;50.922;5.346;2023-10-09T09:49:55;19.88;;;7.65;;
25913;SDS011;13718;50.922;5.346;2023-10-09T09:52:36;15.85;;;7.05;;
25913;SDS011;13718;50.922;5.346;2023-10-09T09:55:08;17.85;;;6.78;;
25913;SDS011;13718;50.922;5.346;2023-10-09T09:57:42;17.52;;;7.50;;
25913;SDS011;13718;50.922;5.346;2023-10-09T10:00:10;17.50;;;7.82;;
25913;SDS011;13718;50.922;5.346;2023-10-09T10:06:04;17.13;;;7.47;;
25913;SDS011;13718;50.922;5.346;2023-10-09T10:08:35;23.90;;;7.43;;
25913;SDS011;13718;50.922;5.346;2023-10-09T10:11:04;17.92;;;6.60;;
25913;SDS011;13718;50.922;5.346;2023-10-09T10:16:13;15.68;;;6.25;;
25913;SDS011;13718;50.922;5.346;2023-10-09T10:18:52;18.95;;;6.85;;
25913;SDS011;13718;50.922;5.346;2023-10-09T10:21:25;15.07;;;7.00;;
25913;SDS011;13718;50.922;5.346;2023-10-09T10:23:57;17.33;;;6.43;;
25913;SDS011;13718;50.922;5.346;2023-10-09T10:26:31;17.27;;;6.05;;
25913;SDS011;13718;50.922;5.346;2023-10-09T10:29:14;15.30;;;5.85;;
25913;SDS011;13718;50.922;5.346;2023-10-09T10:31:59;15.60;;;5.78;;
25913;SDS011;13718;50.922;5.346;2023-10-09T10:34:26;12.68;;;6.30;;
25913;SDS011;13718;50.922;5.346;2023-10-09T10:40:09;18.38;;;5.40;;
25913;SDS011;13718;50.922;5.346;2023-10-09T10:43:03;17.77;;;6.43;;
25913;SDS011;13718;50.922;5.346;2023-10-09T10:45:35;15.75;;;6.10;;
25913;SDS011;13718;50.922;5.346;2023-10-09T10:48:03;17.58;;;5.72;;
25913;SDS011;13718;50.922;5.346;2023-10-09T10:50:34;20.88;;;5.93;;
25913;SDS011;13718;50.922;5.346;2023-10-09T10:53:34;12.57;;;5.32;;
25913;SDS011;13718;50.922;5.346;2023-10-09T10:56:03;17.23;;;5.88;;
25913;SDS011;13718;50.922;5.346;2023-10-09T10:58:38;13.05;;;5.72;;
25913;SDS011;13718;50.922;5.346;2023-10-09T11:01:03;18.52;;;6.15;;
25913;SDS011;13718;50.922;5.346;2023-10-09T11:03:40;17.45;;;5.15;;
25913;SDS011;13718;50.922;5.346;2023-10-09T11:06:25;17.50;;;6.13;;
25913;SDS011;13718;50.922;5.346;2023-10-09T11:09:01;15.75;;;6.15;;
25913;SDS011;13718;50.922;5.346;2023-10-09T11:11:34;20.30;;;5.95;;
25913;SDS011;13718;50.922;5.346;2023-10-09T11:14:11;15.73;;;5.32;;
25913;SDS011;13718;50.922;5.346;2023-10-09T11:16:39;16.85;;;6.10;;
25913;SDS011;13718;50.922;5.346;2023-10-09T11:19:12;22.67;;;6.78;;
25913;SDS011;13718;50.922;5.346;2023-10-09T11:22:00;16.80;;;6.43;;
25913;SDS011;13718;50.922;5.346;2023-10-09T11:24:33;20.05;;;5.97;;
25913;SDS011;13718;50.922;5.346;2023-10-09T11:27:03;16.35;;;5.43;;
25913;SDS011;13718;50.922;5.346;2023-10-09T11:29:30;14.67;;;5.40;;
25913;SDS011;13718;50.922;5.346;2023-10-09T11:32:08;17.85;;;5.68;;
25913;SDS011;13718;50.922;5.346;2023-10-09T11:34:43;16.98;;;5.63;;
25913;SDS011;13718;50.922;5.346;2023-10-09T11:37:19;15.07;;;5.32;;
25913;SDS011;13718;50.922;5.346;2023-10-09T11:39:55;13.25;;;5.28;;
25913;SDS011;13718;50.922;5.346;2023-10-09T11:42:22;16.55;;;5.30;;
25913;SDS011;13718;50.922;5.346;2023-10-09T11:45:23;16.08;;;5.65;;
25913;SDS011;13718;50.922;5.346;2023-10-09T11:47:53;18.10;;;5.55;;
25913;SDS011;13718;50.922;5.346;2023-10-09T11:50:32;17.83;;;5.60;;
25913;SDS011;13718;50.922;5.346;2023-10-09T11:53:07;14.35;;;6.03;;
25913;SDS011;13718;50.922;5.346;2023-10-09T11:55:37;19.27;;;5.55;;
25913;SDS011;13718;50.922;5.346;2023-10-09T11:58:03;16.02;;;5.35;;
25913;SDS011;13718;50.922;5.346;2023-10-09T12:00:30;17.55;;;5.32;;
25913;SDS011;13718;50.922;5.346;2023-10-09T12:03:09;15.48;;;5.43;;
25913;SDS011;13718;50.922;5.346;2023-10-09T12:05:35;17.42;;;5.25;;
25913;SDS011;13718;50.922;5.346;2023-10-09T12:08:01;13.63;;;5.20;;
25913;SDS011;13718;50.922;5.346;2023-10-09T12:10:28;12.40;;;5.25;;
25913;SDS011;13718;50.922;5.346;2023-10-09T12:12:55;14.38;;;4.93;;
25913;SDS011;13718;50.922;5.346;2023-10-09T12:15:23;11.85;;;5.60;;
25913;SDS011;13718;50.922;5.346;2023-10-09T12:17:49;16.20;;;6.35;;
25913;SDS011;13718;50.922;5.346;2023-10-09T12:20:18;14.70;;;5.68;;
25913;SDS011;13718;50.922;5.346;2023-10-09T12:22:56;16.67;;;6.38;;
25913;SDS011;13718;50.922;5.346;2023-10-09T12:25:26;15.45;;;6.13;;
25913;SDS011;13718;50.922;5.346;2023-10-09T12:27:56;16.13;;;6.25;;
25913;SDS011;13718;50.922;5.346;2023-10-09T12:30:22;13.43;;;5.03;;
25913;SDS011;13718;50.922;5.346;2023-10-09T12:32:52;15.50;;;6.03;;
25913;SDS011;13718;50.922;5.346;2023-10-09T12:35:18;14.00;;;5.88;;
25913;SDS011;13718;50.922;5.346;2023-10-09T12:37:44;14.75;;;5.82;;
25913;SDS011;13718;50.922;5.346;2023-10-09T12:40:11;12.52;;;6.00;;
25913;SDS011;13718;50.922;5.346;2023-10-09T12:42:36;15.77;;;5.50;;
25913;SDS011;13718;50.922;5.346;2023-10-09T12:45:02;14.23;;;5.50;;
25913;SDS011;13718;50.922;5.346;2023-10-09T12:47:34;14.88;;;6.10;;
25913;SDS011;13718;50.922;5.346;2023-10-09T12:50:03;11.45;;;5.13;;
25913;SDS011;13718;50.922;5.346;2023-10-09T12:52:35;13.57;;;5.72;;
25913;SDS011;13718;50.922;5.346;2023-10-09T12:55:02;15.50;;;5.93;;
25913;SDS011;13718;50.922;5.346;2023-10-09T12:57:33;15.80;;;5.95;;
25913;SDS011;13718;50.922;5.346;2023-10-09T12:59:59;14.63;;;5.80;;
25913;SDS011;13718;50.922;5.346;2023-10-09T13:02:24;17.85;;;6.25;;
25913;SDS011;13718;50.922;5.346;2023-10-09T13:04:58;17.48;;;5.88;;
25913;SDS011;13718;50.922;5.346;2023-10-09T13:07:25;14.07;;;5.88;;
25913;SDS011;13718;50.922;5.346;2023-10-09T13:09:50;17.92;;;5.45;;
25913;SDS011;13718;50.922;5.346;2023-10-09T13:12:34;14.07;;;5.82;;
25913;SDS011;13718;50.922;5.346;2023-10-09T13:15:07;16.48;;;6.25;;
25913;SDS011;13718;50.922;5.346;2023-10-09T13:17:34;17.52;;;6.18;;
25913;SDS011;13718;50.922;5.346;2023-10-09T13:20:01;18.60;;;5.95;;
25913;SDS011;13718;50.922;5.346;2023-10-09T13:22:29;17.05;;;6.10;;
25913;SDS011;13718;50.922;5.346;2023-10-09T13:24:55;16.73;;;5.65;;
25913;SDS011;13718;50.922;5.346;2023-10-09T13:27:28;12.77;;;5.90;;
25913;SDS011;13718;50.922;5.346;2023-10-09T13:29:59;14.77;;;6.05;;
25913;SDS011;13718;50.922;5.346;2023-10-09T13:32:31;15.60;;;5.72;;
25913;SDS011;13718;50.922;5.346;2023-10-09T13:34:59;12.80;;;6.03;;
25913;SDS011;13718;50.922;5.346;2023-10-09T13:37:28;12.48;;;5.55;;
25913;SDS011;13718;50.922;5.346;2023-10-09T13:39:55;16.63;;;7.13;;
25913;SDS011;13718;50.922;5.346;2023-10-09T13:42:22;14.95;;;6.18;;
25913;SDS011;13718;50.922;5.346;2023-10-09T13:44:51;17.90;;;6.53;;
25913;SDS011;13718;50.922;5.346;2023-10-09T13:47:19;16.58;;;6.28;;
25913;SDS011;13718;50.922;5.346;2023-10-09T13:49:46;18.33;;;7.28;;
25913;SDS011;13718;50.922;5.346;2023-10-09T13:52:15;14.68;;;6.70;;
25913;SDS011;13718;50.922;5.346;2023-10-09T13:54:43;13.38;;;5.85;;
25913;SDS011;13718;50.922;5.346;2023-10-09T13:57:13;14.75;;;6.00;;
25913;SDS011;13718;50.922;5.346;2023-10-09T13:59:40;17.98;;;6.63;;
25913;SDS011;13718;50.922;5.346;2023-10-09T14:02:14;20.23;;;6.45;;
25913;SDS011;13718;50.922;5.346;2023-10-09T14:04:43;14.88;;;6.50;;
25913;SDS011;13718;50.922;5.346;2023-10-09T14:07:12;14.63;;;6.72;;
25913;SDS011;13718;50.922;5.346;2023-10-09T14:09:41;15.10;;;6.32;;
25913;SDS011;13718;50.922;5.346;2023-10-09T14:12:20;16.65;;;6.72;;
25913;SDS011;13718;50.922;5.346;2023-10-09T14:14:48;19.20;;;9.45;;
25913;SDS011;13718;50.922;5.346;2023-10-09T14:17:14;18.55;;;7.43;;
25913;SDS011;13718;50.922;5.346;2023-10-09T14:19:44;18.83;;;7.00;;
25913;SDS011;13718;50.922;5.346;2023-10-09T14:22:16;18.10;;;7.60;;
25913;SDS011;13718;50.922;5.346;2023-10-09T14:24:42;18.75;;;7.15;;
25913;SDS011;13718;50.922;5.346;2023-10-09T14:27:12;18.02;;;7.80;;
25913;SDS011;13718;50.922;5.346;2023-10-09T14:29:45;16.55;;;6.32;;
25913;SDS011;13718;50.922;5.346;2023-10-09T14:32:12;17.13;;;7.38;;
25913;SDS011;13718;50.922;5.346;2023-10-09T14:34:38;17.83;;;6.82;;
25913;SDS011;13718;50.922;5.346;2023-10-09T14:37:11;20.38;;;7.15;;
25913;SDS011;13718;50.922;5.346;2023-10-09T14:39:40;20.10;;;7.47;;
25913;SDS011;13718;50.922;5.346;2023-10-09T14:42:13;19.10;;;7.07;;
25913;SDS011;13718;50.922;5.346;2023-10-09T14:44:40;19.77;;;7.00;;
25913;SDS011;13718;50.922;5.346;2023-10-09T14:47:06;20.00;;;6.93;;
25913;SDS011;13718;50.922;5.346;2023-10-09T14:49:32;17.33;;;7.43;;
25913;SDS011;13718;50.922;5.346;2023-10-09T14:52:02;18.35;;;6.72;;
25913;SDS011;13718;50.922;5.346;2023-10-09T14:54:28;25.65;;;10.68;;
25913;SDS011;13718;50.922;5.346;2023-10-09T14:56:54;21.00;;;9.60;;
25913;SDS011;13718;50.922;5.346;2023-10-09T14:59:19;24.17;;;10.40;;
25913;SDS011;13718;50.922;5.346;2023-10-09T15:01:47;20.63;;;10.38;;
25913;SDS011;13718;50.922;5.346;2023-10-09T15:04:14;20.92;;;8.50;;
25913;SDS011;13718;50.922;5.346;2023-10-09T15:06:40;22.13;;;9.13;;
25913;SDS011;13718;50.922;5.346;2023-10-09T15:09:06;31.35;;;8.95;;
25913;SDS011;13718;50.922;5.346;2023-10-09T15:11:46;21.45;;;9.00;;
25913;SDS011;13718;50.922;5.346;2023-10-09T15:14:13;22.45;;;9.68;;
25913;SDS011;13718;50.922;5.346;2023-10-09T15:16:39;21.00;;;11.38;;
25913;SDS011;13718;50.922;5.346;2023-10-09T15:19:04;23.83;;;10.98;;
25913;SDS011;13718;50.922;5.346;2023-10-09T15:21:30;20.83;;;11.07;;
25913;SDS011;13718;50.922;5.346;2023-10-09T15:23:58;25.23;;;10.90;;
25913;SDS011;13718;50.922;5.346;2023-10-09T15:26:24;21.55;;;11.43;;
25913;SDS011;13718;50.922;5.346;2023-10-09T15:28:50;25.63;;;10.82;;
25913;SDS011;13718;50.922;5.346;2023-10-09T15:31:16;19.40;;;9.98;;
25913;SDS011;13718;50.922;5.346;2023-10-09T15:33:43;26.05;;;11.80;;
25913;SDS011;13718;50.922;5.346;2023-10-09T15:36:13;20.83;;;7.85;;
25913;SDS011;13718;50.922;5.346;2023-10-09T15:38:41;21.92;;;7.88;;
25913;SDS011;13718;50.922;5.346;2023-10-09T15:41:07;20.33;;;7.47;;